createdAt,value
2019-05-18T00:01:35.573Z,10.13
2019-05-18T00:04:06.142Z,10.43
2019-05-18T00:06:35.340Z,9.90
2019-05-18T00:09:09.005Z,8.73
2019-05-18T00:11:39.602Z,10.50
2019-05-18T00:14:16.274Z,9.93
2019-05-18T00:16:47.634Z,9.97
2019-05-18T00:19:18.634Z,10.50
2019-05-18T00:21:48.763Z,9.70
2019-05-18T00:24:17.927Z,10.40
2019-05-18T00:26:47.454Z,9.93
2019-05-18T00:29:19.192Z,10.17
2019-05-18T00:31:49.876Z,9.83
2019-05-18T00:34:21.238Z,9.87
2019-05-18T00:36:51.313Z,10.43
2019-05-18T00:39:20.487Z,10.33
2019-05-18T00:41:51.728Z,9.87
2019-05-18T00:44:21.414Z,10.43
2019-05-18T00:46:51.995Z,9.87
2019-05-18T00:49:21.721Z,9.50
2019-05-18T00:51:51.296Z,8.77
2019-05-18T00:54:20.772Z,9.30
2019-05-18T00:56:52.276Z,9.23
2019-05-18T00:59:22.225Z,9.50
2019-05-18T01:01:52.984Z,9.60
2019-05-18T01:04:22.458Z,9.10
2019-05-18T01:06:51.973Z,8.93
2019-05-18T01:09:25.675Z,8.63
2019-05-18T01:11:55.246Z,9.50
2019-05-18T01:14:25.626Z,8.73
2019-05-18T01:16:55.106Z,9.00
2019-05-18T01:19:30.330Z,9.13
2019-05-18T01:22:02.524Z,9.73
2019-05-18T01:24:33.900Z,9.23
2019-05-18T01:27:03.691Z,8.83
2019-05-18T01:29:33.931Z,8.93
2019-05-18T01:32:03.469Z,8.80
2019-05-18T01:34:32.891Z,8.87
2019-05-18T01:37:02.713Z,8.93
2019-05-18T01:39:32.246Z,9.80
2019-05-18T01:42:03.322Z,9.23
2019-05-18T01:44:33.667Z,9.93
2019-05-18T01:47:02.858Z,9.93
2019-05-18T01:49:32.293Z,10.47
2019-05-18T01:52:01.507Z,10.47
2019-05-18T01:54:33.068Z,10.03
2019-05-18T01:57:02.249Z,8.70
2019-05-18T01:59:32.053Z,7.60
2019-05-18T02:02:01.241Z,8.27
2019-05-18T02:04:40.337Z,9.30
2019-05-18T02:07:09.639Z,8.90
2019-05-18T02:09:39.229Z,10.10
2019-05-18T02:12:08.407Z,8.10
2019-05-18T02:14:38.134Z,7.97
2019-05-18T02:17:07.851Z,8.40
2019-05-18T02:19:37.458Z,10.30
2019-05-18T02:22:08.141Z,10.73
2019-05-18T02:24:37.882Z,10.30
2019-05-18T02:27:07.341Z,10.37
2019-05-18T02:29:40.433Z,10.37
2019-05-18T02:32:09.912Z,9.37
2019-05-18T02:34:39.869Z,8.97
2019-05-18T02:37:10.052Z,8.17
2019-05-18T02:39:40.116Z,8.83
2019-05-18T02:42:10.070Z,8.70
2019-05-18T02:44:40.775Z,10.00
2019-05-18T02:47:12.142Z,9.53
2019-05-18T02:49:41.594Z,10.00
2019-05-18T02:52:11.111Z,9.57
2019-05-18T02:54:41.121Z,8.70
2019-05-18T02:57:11.135Z,9.03
2019-05-18T02:59:40.636Z,9.63
2019-05-18T03:02:14.491Z,9.60
2019-05-18T03:04:45.623Z,9.30
2019-05-18T03:07:14.799Z,8.90
2019-05-18T03:09:46.758Z,9.50
2019-05-18T03:12:16.202Z,9.17
2019-05-18T03:14:47.256Z,9.33
2019-05-18T03:17:17.836Z,9.73
2019-05-18T03:19:47.779Z,9.47
2019-05-18T03:22:20.907Z,9.43
2019-05-18T03:24:50.439Z,9.87
2019-05-18T03:27:19.892Z,10.30
2019-05-18T03:29:53.004Z,10.20
2019-05-18T03:32:26.668Z,10.17
2019-05-18T03:34:57.866Z,9.43
2019-05-18T03:37:29.459Z,9.80
2019-05-18T03:39:58.657Z,9.87
2019-05-18T03:42:28.096Z,9.67
2019-05-18T03:44:57.740Z,10.63
2019-05-18T03:47:28.695Z,10.50
2019-05-18T03:50:03.045Z,10.33
2019-05-18T03:52:33.081Z,11.03
2019-05-18T03:55:02.791Z,10.87
2019-05-18T03:57:32.763Z,10.93
2019-05-18T04:00:02.601Z,11.00
2019-05-18T04:02:31.770Z,11.03
2019-05-18T04:05:05.902Z,9.70
2019-05-18T04:07:36.014Z,11.67
2019-05-18T04:10:07.114Z,11.50
2019-05-18T04:12:39.050Z,10.47
2019-05-18T04:15:10.395Z,11.27
2019-05-18T04:17:40.890Z,11.27
2019-05-18T04:20:10.790Z,11.73
2019-05-18T04:22:40.453Z,11.00
2019-05-18T04:25:10.045Z,11.47
2019-05-18T04:27:40.356Z,11.20
2019-05-18T04:30:10.257Z,10.70
2019-05-18T04:32:39.846Z,11.10
2019-05-18T04:35:11.474Z,10.57
2019-05-18T04:37:41.342Z,11.33
2019-05-18T04:40:12.010Z,11.77
2019-05-18T04:42:41.196Z,11.03
2019-05-18T04:45:11.254Z,10.67
2019-05-18T04:47:41.262Z,11.07
2019-05-18T04:50:12.723Z,10.80
2019-05-18T04:52:43.091Z,10.80
2019-05-18T04:55:12.512Z,10.53
2019-05-18T04:57:42.179Z,10.67
2019-05-18T05:00:13.318Z,10.67
2019-05-18T05:02:42.802Z,10.97
2019-05-18T05:05:12.771Z,11.00
2019-05-18T05:07:42.785Z,12.10
2019-05-18T05:10:12.253Z,11.23
2019-05-18T05:12:41.776Z,12.03
2019-05-18T05:15:11.945Z,11.97
2019-05-18T05:17:42.671Z,12.03
2019-05-18T05:20:19.676Z,12.07
2019-05-18T05:22:45.277Z,13.13
2019-05-18T05:25:15.004Z,22.07
2019-05-18T05:27:44.988Z,22.57
2019-05-18T05:30:16.053Z,22.13
2019-05-18T05:32:45.215Z,20.93
2019-05-18T05:35:16.892Z,19.27
2019-05-18T05:37:46.375Z,16.87
2019-05-18T05:40:16.348Z,15.07
2019-05-18T05:42:46.327Z,14.63
2019-05-18T05:45:15.864Z,13.97
2019-05-18T05:47:45.294Z,12.77
2019-05-18T05:50:18.029Z,12.53
2019-05-18T05:52:48.155Z,12.30
2019-05-18T05:55:20.795Z,11.83
2019-05-18T05:57:50.811Z,11.90
2019-05-18T06:00:21.417Z,11.17
2019-05-18T06:02:51.672Z,12.17
2019-05-18T06:05:21.127Z,11.53
2019-05-18T06:07:53.364Z,12.30
2019-05-18T06:10:45.435Z,12.70
2019-05-18T06:13:20.923Z,12.17
2019-05-18T06:16:01.211Z,11.40
2019-05-18T06:18:31.098Z,11.53
2019-05-18T06:21:00.651Z,11.87
2019-05-18T06:23:29.855Z,11.30
2019-05-18T06:26:01.358Z,12.47
2019-05-18T06:28:31.146Z,13.07
2019-05-18T06:31:00.870Z,13.00
2019-05-18T06:33:30.400Z,12.87
2019-05-18T06:35:59.649Z,12.50
2019-05-18T06:38:30.398Z,13.53
2019-05-18T06:40:59.590Z,13.40
2019-05-18T06:43:28.812Z,15.60
2019-05-18T06:45:58.280Z,17.50
2019-05-18T06:48:27.477Z,15.67
2019-05-18T06:51:06.784Z,15.83
2019-05-18T06:53:28.743Z,15.30
2019-05-18T06:55:58.762Z,13.23
2019-05-18T06:58:28.251Z,13.10
2019-05-18T07:00:58.348Z,12.87
2019-05-18T07:03:28.426Z,13.33
2019-05-18T07:05:57.859Z,14.00
2019-05-18T07:08:27.051Z,12.40
2019-05-18T07:10:56.524Z,11.47
2019-05-18T07:13:26.894Z,10.90
2019-05-18T07:15:59.507Z,11.27
2019-05-18T07:18:30.020Z,9.37
2019-05-18T07:21:03.181Z,8.13
2019-05-18T07:23:32.350Z,8.20
2019-05-18T07:26:01.594Z,7.50
2019-05-18T07:28:31.073Z,7.10
2019-05-18T07:31:00.575Z,7.97
2019-05-18T07:33:35.018Z,8.00
2019-05-18T07:36:05.597Z,7.53
2019-05-18T07:38:35.045Z,5.70
2019-05-18T07:41:04.285Z,6.30
2019-05-18T07:43:35.306Z,6.30
2019-05-18T07:46:08.275Z,5.80
2019-05-18T07:48:36.267Z,8.30
2019-05-18T07:51:06.743Z,6.67
2019-05-18T07:53:35.908Z,6.33
2019-05-18T07:56:06.857Z,7.13
2019-05-18T07:58:37.174Z,6.80
2019-05-18T08:01:08.366Z,6.03
2019-05-18T08:03:39.070Z,6.17
2019-05-18T08:06:08.606Z,6.47
2019-05-18T08:08:38.470Z,6.30
2019-05-18T08:11:07.471Z,7.00
2019-05-18T08:13:37.257Z,6.13
2019-05-18T08:16:07.243Z,5.63
2019-05-18T08:18:38.587Z,5.53
2019-05-18T08:21:10.396Z,4.80
2019-05-18T08:23:39.827Z,4.60
2019-05-18T08:26:09.013Z,4.73
2019-05-18T08:28:38.160Z,5.27
2019-05-18T08:31:07.311Z,7.37
2019-05-18T08:33:36.533Z,6.27
2019-05-18T08:36:05.751Z,7.13
2019-05-18T08:38:34.930Z,8.50
2019-05-18T08:41:04.104Z,8.90
2019-05-18T08:43:33.279Z,7.60
2019-05-18T08:46:02.482Z,8.23
2019-05-18T08:48:31.645Z,7.83
2019-05-18T08:51:00.817Z,9.53
2019-05-18T08:53:30.014Z,9.10
2019-05-18T08:55:59.201Z,6.67
2019-05-18T08:58:28.373Z,7.13
2019-05-18T09:00:57.539Z,6.60
2019-05-18T09:03:27.072Z,5.63
2019-05-18T09:05:57.021Z,5.90
2019-05-18T09:08:26.466Z,5.10
2019-05-18T09:10:58.280Z,4.40
2019-05-18T09:13:27.667Z,5.40
2019-05-18T09:15:59.570Z,4.87
2019-05-18T09:18:33.403Z,4.70
2019-05-18T09:21:04.572Z,4.10
2019-05-18T09:23:35.802Z,4.23
2019-05-18T09:26:06.573Z,3.80
2019-05-18T09:28:57.137Z,4.07
2019-05-18T09:31:28.011Z,3.37
2019-05-18T09:33:57.197Z,3.50
2019-05-18T09:36:28.754Z,3.00
2019-05-18T09:38:58.272Z,3.20
2019-05-18T09:41:27.786Z,2.70
2019-05-18T09:43:57.479Z,3.33
2019-05-18T09:46:26.912Z,3.20
2019-05-18T09:48:56.659Z,3.47
2019-05-18T09:51:25.857Z,4.40
2019-05-18T09:53:55.032Z,3.90
2019-05-18T09:56:24.485Z,4.10
2019-05-18T09:58:54.146Z,3.20
2019-05-18T10:01:23.595Z,3.13
2019-05-18T10:03:52.831Z,3.20
2019-05-18T10:06:22.345Z,3.40
2019-05-18T10:08:51.542Z,3.47
2019-05-18T10:11:20.712Z,3.53
2019-05-18T10:13:50.207Z,3.73
2019-05-18T10:16:20.633Z,3.80
2019-05-18T10:18:51.204Z,3.40
2019-05-18T10:21:20.716Z,3.63
2019-05-18T10:23:50.119Z,3.10
2019-05-18T10:26:19.303Z,3.53
2019-05-18T10:28:51.103Z,3.20
2019-05-18T10:31:20.287Z,3.23
2019-05-18T10:33:49.613Z,3.97
2019-05-18T10:36:20.509Z,3.53
2019-05-18T10:38:50.226Z,3.20
2019-05-18T10:41:20.568Z,3.30
2019-05-18T10:43:50.696Z,3.43
2019-05-18T10:46:20.215Z,3.50
2019-05-18T10:48:50.176Z,3.40
2019-05-18T10:51:19.630Z,3.13
2019-05-18T10:53:49.116Z,3.37
2019-05-18T10:56:20.765Z,3.20
2019-05-18T10:58:55.352Z,2.87
2019-05-18T11:01:24.529Z,3.10
2019-05-18T11:03:54.919Z,3.00
2019-05-18T11:06:24.402Z,3.20
2019-05-18T11:08:56.138Z,2.83
2019-05-18T11:11:25.546Z,2.93
2019-05-18T11:13:55.867Z,2.80
2019-05-18T11:16:25.625Z,3.00
2019-05-18T11:18:54.823Z,2.63
2019-05-18T11:21:24.782Z,2.97
2019-05-18T11:23:54.222Z,2.80
2019-05-18T11:26:23.680Z,3.90
2019-05-18T11:28:56.924Z,2.40
2019-05-18T11:31:26.941Z,2.93
2019-05-18T11:33:56.653Z,2.67
2019-05-18T11:36:26.859Z,2.93
2019-05-18T11:38:56.667Z,2.70
2019-05-18T11:41:25.839Z,2.90
2019-05-18T11:43:55.856Z,2.70
2019-05-18T11:46:25.563Z,2.40
2019-05-18T11:48:54.954Z,3.27
2019-05-18T11:51:24.954Z,3.10
2019-05-18T11:53:58.260Z,3.30
2019-05-18T11:56:27.938Z,2.63
2019-05-18T11:58:58.803Z,2.90
2019-05-18T12:01:29.316Z,3.07
2019-05-18T12:03:58.471Z,3.30
2019-05-18T12:06:29.262Z,3.40
2019-05-18T12:08:58.834Z,3.20
2019-05-18T12:11:27.960Z,3.20
2019-05-18T12:13:57.935Z,3.20
2019-05-18T12:16:27.716Z,3.20
2019-05-18T12:18:58.894Z,3.50
2019-05-18T12:21:29.576Z,3.50
2019-05-18T12:24:14.057Z,3.17
2019-05-18T12:26:32.764Z,3.40
2019-05-18T12:29:06.225Z,3.13
2019-05-18T12:31:36.203Z,2.87
2019-05-18T12:34:07.561Z,3.30
2019-05-18T12:36:38.539Z,3.33
2019-05-18T12:39:12.011Z,2.93
2019-05-18T12:41:43.313Z,2.83
2019-05-18T12:44:13.720Z,3.17
2019-05-18T12:46:43.518Z,2.90
2019-05-18T12:49:12.956Z,2.70
2019-05-18T12:51:44.224Z,2.87
2019-05-18T12:54:13.412Z,2.70
2019-05-18T12:56:42.658Z,3.07
2019-05-18T12:59:12.088Z,2.90
2019-05-18T13:01:42.078Z,2.80
2019-05-18T13:04:11.541Z,2.67
2019-05-18T13:06:41.171Z,2.97
2019-05-18T13:09:10.333Z,3.70
2019-05-18T13:11:43.781Z,3.00
2019-05-18T13:14:13.328Z,2.60
2019-05-18T13:16:43.245Z,2.33
2019-05-18T13:19:26.153Z,2.70
2019-05-18T13:21:59.638Z,2.90
2019-05-18T13:24:44.771Z,2.70
2019-05-18T13:27:08.174Z,2.60
2019-05-18T13:29:37.920Z,2.57
2019-05-18T13:32:08.844Z,2.60
2019-05-18T13:34:41.611Z,2.93
2019-05-18T13:37:10.870Z,2.70
2019-05-18T13:39:40.305Z,2.90
2019-05-18T13:42:10.133Z,2.40
2019-05-18T13:44:39.543Z,3.40
2019-05-18T13:47:09.491Z,3.00
2019-05-18T13:49:38.645Z,2.90
2019-05-18T13:52:10.919Z,2.97
2019-05-18T13:54:40.104Z,2.70
2019-05-18T13:57:13.546Z,2.50
2019-05-18T13:59:42.976Z,2.47
2019-05-18T14:02:12.847Z,2.83
2019-05-18T14:04:42.802Z,3.13
2019-05-18T14:07:15.215Z,2.60
2019-05-18T14:09:44.496Z,2.57
2019-05-18T14:12:13.641Z,2.53
2019-05-18T14:14:42.836Z,2.77
2019-05-18T14:17:12.270Z,2.60
2019-05-18T14:19:41.481Z,2.20
2019-05-18T14:22:12.747Z,2.30
2019-05-18T14:24:42.608Z,2.30
2019-05-18T14:27:12.055Z,2.37
2019-05-18T14:29:41.583Z,2.57
2019-05-18T14:32:12.651Z,2.40
2019-05-18T14:34:43.158Z,2.50
2019-05-18T14:37:14.461Z,2.33
2019-05-18T14:39:43.683Z,2.70
2019-05-18T14:42:13.125Z,2.70
2019-05-18T14:44:42.996Z,2.43
2019-05-18T14:47:15.760Z,2.20
2019-05-18T14:49:45.590Z,2.70
2019-05-18T14:52:18.193Z,2.50
2019-05-18T14:54:47.942Z,2.70
2019-05-18T14:57:17.122Z,2.60
2019-05-18T14:59:47.067Z,2.30
2019-05-18T15:02:21.851Z,2.27
2019-05-18T15:04:53.441Z,2.37
2019-05-18T15:07:23.304Z,2.10
2019-05-18T15:09:52.491Z,2.40
2019-05-18T15:12:21.642Z,2.10
2019-05-18T15:14:51.048Z,2.50
2019-05-18T15:17:20.536Z,2.43
2019-05-18T15:19:50.311Z,2.30
2019-05-18T15:22:19.870Z,2.53
2019-05-18T15:24:49.116Z,1.97
2019-05-18T15:27:18.378Z,2.27
2019-05-18T15:29:47.622Z,2.07
2019-05-18T15:32:18.410Z,2.40
2019-05-18T15:34:47.716Z,2.00
2019-05-18T15:37:17.274Z,2.33
2019-05-18T15:39:46.457Z,1.80
2019-05-18T15:42:15.690Z,2.30
2019-05-18T15:44:46.925Z,2.37
2019-05-18T15:47:16.582Z,2.53
2019-05-18T15:49:47.951Z,2.30
2019-05-18T15:52:17.388Z,2.27
2019-05-18T15:54:48.658Z,2.40
2019-05-18T15:57:30.556Z,2.37
2019-05-18T16:00:06.206Z,2.20
2019-05-18T16:02:32.794Z,2.30
2019-05-18T16:05:02.601Z,2.20
2019-05-18T16:07:31.827Z,2.30
2019-05-18T16:10:00.996Z,2.07
2019-05-18T16:12:30.186Z,2.17
2019-05-18T16:15:00.985Z,2.10
2019-05-18T16:17:38.823Z,2.10
2019-05-18T16:20:01.076Z,2.20
2019-05-18T16:22:30.593Z,1.80
2019-05-18T16:24:59.771Z,1.70
2019-05-18T16:27:32.024Z,1.80
2019-05-18T16:30:01.477Z,1.70
2019-05-18T16:32:31.534Z,1.70
2019-05-18T16:35:00.679Z,2.03
2019-05-18T16:37:30.167Z,2.00
2019-05-18T16:39:59.438Z,1.40
2019-05-18T16:42:29.740Z,1.30
2019-05-18T16:45:00.366Z,1.70
2019-05-18T16:47:30.656Z,1.33
2019-05-18T16:50:00.137Z,1.60
2019-05-18T16:52:30.376Z,1.37
2019-05-18T16:54:59.360Z,1.47
2019-05-18T16:57:30.430Z,1.40
2019-05-18T17:00:03.601Z,1.40
2019-05-18T17:02:33.050Z,1.60
2019-05-18T17:05:02.805Z,1.60
2019-05-18T17:07:33.091Z,1.40
2019-05-18T17:10:05.387Z,1.43
2019-05-18T17:12:34.844Z,1.40
2019-05-18T17:15:08.183Z,1.43
2019-05-18T17:17:39.211Z,1.27
2019-05-18T17:20:13.158Z,1.10
2019-05-18T17:22:42.616Z,1.30
2019-05-18T17:25:13.254Z,1.40
2019-05-18T17:27:45.750Z,1.27
2019-05-18T17:30:19.503Z,1.20
2019-05-18T17:32:49.732Z,1.00
2019-05-18T17:35:24.049Z,1.37
2019-05-18T17:37:53.239Z,1.10
2019-05-18T17:40:23.220Z,1.20
2019-05-18T17:42:52.382Z,1.50
2019-05-18T17:45:22.729Z,1.20
2019-05-18T17:47:53.589Z,1.37
2019-05-18T17:50:24.048Z,1.50
2019-05-18T17:52:57.172Z,1.17
2019-05-18T17:55:33.373Z,1.50
2019-05-18T17:58:11.662Z,2.40
2019-05-18T18:00:42.135Z,1.90
2019-05-18T18:03:15.076Z,1.80
2019-05-18T18:05:46.510Z,1.60
2019-05-18T18:08:15.868Z,1.70
2019-05-18T18:10:47.508Z,1.90
2019-05-18T18:13:17.564Z,1.63
2019-05-18T18:15:47.168Z,1.90
2019-05-18T18:18:16.515Z,2.03
2019-05-18T18:20:47.723Z,1.80
2019-05-18T18:23:16.887Z,1.63
2019-05-18T18:25:47.214Z,1.63
2019-05-18T18:28:16.626Z,1.57
2019-05-18T18:30:46.587Z,1.73
2019-05-18T18:33:16.310Z,1.77
2019-05-18T18:35:45.978Z,1.60
2019-05-18T18:38:19.354Z,1.80
2019-05-18T18:40:48.801Z,2.10
2019-05-18T18:43:20.449Z,2.77
2019-05-18T18:45:48.947Z,3.63
2019-05-18T18:48:19.345Z,3.63
2019-05-18T18:50:48.882Z,3.53
2019-05-18T18:53:18.043Z,3.10
2019-05-18T18:55:47.749Z,3.33
2019-05-18T18:58:16.931Z,3.00
2019-05-18T19:00:46.399Z,2.40
2019-05-18T19:03:15.572Z,2.10
2019-05-18T19:05:45.318Z,1.70
2019-05-18T19:08:23.678Z,2.00
2019-05-18T19:10:53.199Z,1.90
2019-05-18T19:13:22.787Z,2.10
2019-05-18T19:15:52.622Z,1.97
2019-05-18T19:18:22.713Z,2.20
2019-05-18T19:20:52.645Z,2.50
2019-05-18T19:23:22.643Z,2.20
2019-05-18T19:25:52.146Z,2.67
2019-05-18T19:28:21.381Z,2.50
2019-05-18T19:30:52.132Z,2.07
2019-05-18T19:33:28.113Z,2.50
2019-05-18T19:35:57.217Z,2.40
2019-05-18T19:38:29.095Z,2.67
2019-05-18T19:40:59.074Z,2.57
2019-05-18T19:43:28.722Z,2.40
2019-05-18T19:45:57.946Z,2.73
2019-05-18T19:48:27.346Z,3.03
2019-05-18T19:50:56.504Z,4.80
2019-05-18T19:53:27.858Z,3.00
2019-05-18T19:55:59.709Z,3.00
2019-05-18T19:58:29.797Z,2.87
2019-05-18T20:00:59.759Z,3.10
2019-05-18T20:03:29.078Z,3.17
2019-05-18T20:06:02.195Z,3.10
2019-05-18T20:08:32.590Z,2.63
2019-05-18T20:11:05.296Z,2.70
2019-05-18T20:13:34.696Z,2.80
2019-05-18T20:16:03.986Z,2.37
2019-05-18T20:18:33.686Z,2.40
2019-05-18T20:21:05.148Z,2.23
2019-05-18T20:23:35.482Z,2.40
2019-05-18T20:26:05.588Z,2.10
2019-05-18T20:28:35.138Z,2.20
2019-05-18T20:31:04.351Z,2.30
2019-05-18T20:33:35.521Z,2.03
2019-05-18T20:36:05.300Z,1.93
2019-05-18T20:38:37.368Z,2.13
2019-05-18T20:41:06.694Z,2.17
2019-05-18T20:43:36.473Z,2.13
2019-05-18T20:46:06.127Z,2.00
2019-05-18T20:48:36.016Z,2.43
2019-05-18T20:51:05.268Z,2.23
2019-05-18T20:53:35.460Z,2.17
2019-05-18T20:56:05.224Z,2.17
2019-05-18T20:58:40.071Z,2.30
2019-05-18T21:01:06.787Z,2.50
2019-05-18T21:03:36.970Z,2.33
2019-05-18T21:06:06.421Z,2.40
2019-05-18T21:08:36.193Z,2.50
2019-05-18T21:11:05.693Z,2.33
2019-05-18T21:13:35.138Z,2.60
2019-05-18T21:16:06.119Z,2.47
2019-05-18T21:18:35.565Z,2.10
2019-05-18T21:21:06.220Z,2.63
2019-05-18T21:23:35.388Z,2.30
2019-05-18T21:26:04.554Z,2.60
2019-05-18T21:28:33.707Z,2.40
2019-05-18T21:31:02.889Z,2.40
2019-05-18T21:33:35.417Z,2.40
2019-05-18T21:36:05.376Z,2.63
2019-05-18T21:38:34.879Z,2.40
2019-05-18T21:41:04.669Z,2.10
2019-05-18T21:43:33.819Z,2.57
2019-05-18T21:46:02.992Z,2.50
2019-05-18T21:48:32.163Z,2.40
2019-05-18T21:51:01.598Z,2.30
2019-05-18T21:53:31.458Z,2.50
2019-05-18T21:56:00.959Z,2.40
2019-05-18T21:58:30.724Z,2.40
2019-05-18T22:01:00.283Z,2.40
2019-05-18T22:03:29.477Z,2.60
2019-05-18T22:05:59.036Z,2.40
2019-05-18T22:08:28.232Z,2.60
2019-05-18T22:10:58.867Z,2.23
2019-05-18T22:13:28.338Z,2.53
2019-05-18T22:15:58.589Z,2.67
2019-05-18T22:18:27.786Z,2.87
2019-05-18T22:20:56.963Z,2.80
2019-05-18T22:23:27.194Z,2.87
2019-05-18T22:25:57.302Z,3.03
2019-05-18T22:28:26.988Z,2.77
2019-05-18T22:30:58.317Z,2.80
2019-05-18T22:33:29.873Z,4.00
2019-05-18T22:35:59.875Z,3.00
2019-05-18T22:38:31.376Z,2.80
2019-05-18T22:41:01.152Z,2.90
2019-05-18T22:43:30.626Z,2.70
2019-05-18T22:46:01.122Z,2.70
2019-05-18T22:48:41.469Z,2.73
2019-05-18T22:51:05.257Z,3.13
2019-05-18T22:53:37.174Z,2.53
2019-05-18T22:56:08.628Z,2.40
2019-05-18T22:58:39.359Z,2.70
2019-05-18T23:01:08.524Z,2.57
2019-05-18T23:03:38.018Z,2.50
2019-05-18T23:06:07.454Z,2.97
2019-05-18T23:08:38.083Z,2.23
2019-05-18T23:11:07.545Z,2.77
2019-05-18T23:13:37.761Z,2.40
2019-05-18T23:16:07.222Z,2.60
2019-05-18T23:18:37.034Z,2.57
2019-05-18T23:21:06.505Z,2.80
2019-05-18T23:23:36.007Z,2.60
2019-05-18T23:26:05.406Z,2.13
2019-05-18T23:28:34.877Z,2.60
2019-05-18T23:31:05.783Z,2.47
2019-05-18T23:33:35.228Z,2.67
2019-05-18T23:36:07.428Z,2.87
2019-05-18T23:38:38.025Z,2.80
2019-05-18T23:41:07.684Z,2.40
2019-05-18T23:43:37.362Z,2.50
2019-05-18T23:46:07.686Z,2.60
2019-05-18T23:48:37.126Z,3.33
2019-05-18T23:51:06.598Z,2.90
2019-05-18T23:53:36.314Z,3.00
2019-05-18T23:56:06.055Z,2.80
2019-05-18T23:58:35.564Z,2.83
